createdAt,value
2022-09-28T17:55:19.066Z,8.57
2022-09-28T17:56:50.847Z,7.88
2022-09-28T17:58:23.064Z,7.93
2022-09-28T18:00:07.116Z,7.90
2022-09-28T18:01:39.462Z,6.45
2022-09-28T18:03:19.997Z,6.43
2022-09-28T18:04:54.341Z,7.65
2022-09-28T18:06:26.265Z,7.72
2022-09-28T18:07:58.909Z,6.38
2022-09-28T18:09:30.697Z,8.70
2022-09-28T18:11:02.433Z,6.85
2022-09-28T18:12:37.331Z,6.93
2022-09-28T18:14:13.431Z,8.27
2022-09-28T18:15:45.527Z,8.38
2022-09-28T18:17:17.323Z,8.77
2022-09-28T18:18:49.073Z,11.43
2022-09-28T18:20:20.863Z,11.75
2022-09-28T18:21:56.304Z,9.75
2022-09-28T18:23:28.074Z,10.90
2022-09-28T18:24:59.837Z,13.23
2022-09-28T18:26:31.551Z,8.57
2022-09-28T18:28:03.321Z,10.82
2022-09-28T18:29:35.133Z,10.35
2022-09-28T18:31:08.246Z,12.18
2022-09-28T18:32:40.108Z,11.70
2022-09-28T18:34:13.699Z,8.95
2022-09-28T18:35:54.771Z,11.73
2022-09-28T18:37:26.491Z,9.75
2022-09-28T18:39:01.629Z,9.57
2022-09-28T18:40:34.258Z,10.20
2022-09-28T18:42:06.488Z,13.50
2022-09-28T18:43:38.615Z,13.80
2022-09-28T18:45:13.341Z,10.07
2022-09-28T18:46:45.237Z,8.05
2022-09-28T18:48:16.945Z,8.63
2022-09-28T18:49:50.705Z,9.73
2022-09-28T18:51:22.594Z,10.20
2022-09-28T18:52:54.487Z,10.30
2022-09-28T18:54:27.986Z,10.70
2022-09-28T18:56:05.799Z,8.25
2022-09-28T18:57:39.247Z,9.38
2022-09-28T18:59:13.788Z,9.02
2022-09-28T19:00:46.586Z,11.30
2022-09-28T19:02:18.396Z,11.07
2022-09-28T19:03:50.224Z,12.60
2022-09-28T19:05:22.040Z,9.88
2022-09-28T19:06:54.565Z,7.82
2022-09-28T19:08:27.800Z,7.72
2022-09-28T19:09:59.616Z,13.57
2022-09-28T19:11:31.360Z,12.02
2022-09-28T19:13:03.015Z,11.90
2022-09-28T19:14:34.692Z,9.45
2022-09-28T19:16:10.403Z,8.00
2022-09-28T19:17:42.574Z,9.02
2022-09-28T19:19:17.804Z,8.82
2022-09-28T19:20:49.495Z,8.25
2022-09-28T19:22:21.164Z,10.50
2022-09-28T19:23:55.202Z,9.73
2022-09-28T19:25:26.868Z,9.25
2022-09-28T19:26:58.594Z,10.13
2022-09-28T19:28:30.925Z,10.82
2022-09-28T19:30:03.350Z,10.38
2022-09-28T19:31:35.166Z,9.95
2022-09-28T19:33:06.914Z,11.43
2022-09-28T19:34:38.645Z,8.25
2022-09-28T19:36:12.298Z,10.48
2022-09-28T19:37:46.781Z,9.88
2022-09-28T19:39:18.537Z,9.77
2022-09-28T19:40:50.293Z,12.45
2022-09-28T19:42:22.088Z,12.02
2022-09-28T19:43:53.756Z,10.60
2022-09-28T19:45:25.593Z,10.32
2022-09-28T19:52:01.588Z,8.63
2022-09-28T19:53:36.786Z,11.30
2022-09-28T19:55:08.735Z,11.43
2022-09-28T19:56:41.637Z,7.53
2022-09-28T19:59:52.507Z,8.20
2022-09-28T20:01:24.860Z,8.07
2022-09-28T20:02:56.759Z,7.37
2022-09-28T20:04:29.026Z,7.13
2022-09-28T20:06:01.921Z,9.05
2022-09-28T20:09:07.333Z,7.15
2022-09-28T20:10:41.679Z,8.25
2022-09-28T20:12:13.423Z,7.95
2022-09-28T20:13:45.276Z,8.30
2022-09-28T20:15:17.163Z,9.77
2022-09-28T20:16:49.148Z,7.50
2022-09-28T20:18:20.898Z,8.48
2022-09-28T20:19:52.756Z,9.80
2022-09-28T20:21:26.831Z,17.38
2022-09-28T20:22:58.824Z,7.45
2022-09-28T20:24:31.513Z,10.57
2022-09-28T20:27:35.201Z,9.38
2022-09-28T20:29:07.745Z,12.05
2022-09-28T20:30:39.765Z,12.50
2022-09-28T20:32:11.782Z,9.05
2022-09-28T20:33:43.793Z,10.85
2022-09-28T20:35:26.098Z,9.17
2022-09-28T20:37:04.274Z,11.40
2022-09-28T20:38:39.468Z,8.57
2022-09-28T20:40:11.606Z,12.88
2022-09-28T20:41:43.462Z,9.07
2022-09-28T20:43:15.331Z,8.65
2022-09-28T20:44:47.073Z,11.18
2022-09-28T20:46:19.985Z,10.27
2022-09-28T20:47:51.861Z,9.65
2022-09-28T20:49:24.050Z,17.23
2022-09-28T20:51:00.851Z,10.00
2022-09-28T20:52:32.666Z,11.60
2022-09-28T20:54:05.043Z,12.20
2022-09-28T20:55:36.798Z,9.70
2022-09-28T20:57:17.603Z,13.40
2022-09-28T20:58:51.186Z,11.27
2022-09-28T21:00:23.086Z,10.40
2022-09-28T21:01:54.899Z,12.48
2022-09-28T21:03:27.173Z,13.43
2022-09-28T21:04:58.878Z,9.63
2022-09-28T21:06:32.461Z,12.18
2022-09-28T21:08:04.217Z,14.38
2022-09-28T21:09:36.157Z,13.77
2022-09-28T21:11:08.152Z,12.17
2022-09-28T21:12:40.802Z,14.40
2022-09-28T21:14:12.555Z,12.32
2022-09-28T21:15:44.418Z,11.93
2022-09-28T21:17:16.343Z,16.55
2022-09-28T21:18:48.336Z,12.55
2022-09-28T21:20:21.340Z,12.88
2022-09-28T21:21:54.073Z,12.65
2022-09-28T21:23:25.853Z,12.45
2022-09-28T21:24:57.609Z,13.10
2022-09-28T21:26:29.955Z,15.10
2022-09-28T21:28:01.810Z,11.40
2022-09-28T21:29:33.699Z,14.68
2022-09-28T21:31:06.813Z,12.53
2022-09-28T21:32:38.587Z,15.07
2022-09-28T21:34:12.318Z,13.13
2022-09-28T21:35:44.113Z,12.68
2022-09-28T21:37:16.212Z,11.80
2022-09-28T21:38:47.992Z,13.02
2022-09-28T21:40:20.579Z,17.50
2022-09-28T21:41:52.395Z,13.75
2022-09-28T21:43:25.602Z,11.63
2022-09-28T21:44:59.472Z,13.70
2022-09-28T21:46:34.426Z,13.90
2022-09-28T21:48:06.345Z,17.75
2022-09-28T21:49:38.094Z,14.07
2022-09-28T21:51:11.344Z,12.10
2022-09-28T21:52:43.113Z,12.27
2022-09-28T21:54:15.233Z,11.43
2022-09-28T21:55:52.573Z,11.77
2022-09-28T21:57:24.328Z,11.30
2022-09-28T21:58:56.181Z,12.48
2022-09-28T22:00:27.978Z,15.32
2022-09-28T22:01:59.786Z,14.30
2022-09-28T22:03:32.493Z,11.45
2022-09-28T22:05:04.407Z,14.55
2022-09-28T22:06:36.155Z,11.32
2022-09-28T22:08:08.949Z,13.35
2022-09-28T22:09:40.774Z,15.85
2022-09-28T22:11:17.468Z,13.55
2022-09-28T22:12:49.234Z,13.85
2022-09-28T22:14:21.117Z,15.00
2022-09-28T22:15:57.303Z,13.63
2022-09-28T22:17:29.127Z,17.48
2022-09-28T22:19:00.952Z,16.08
2022-09-28T22:20:32.705Z,16.05
2022-09-28T22:22:04.481Z,12.77
2022-09-28T22:23:36.916Z,14.25
2022-09-28T22:25:09.287Z,17.20
2022-09-28T22:26:41.163Z,15.93
2022-09-28T22:28:12.996Z,18.13
2022-09-28T22:29:44.874Z,13.68
2022-09-28T22:31:17.498Z,16.08
2022-09-28T22:32:49.291Z,14.55
2022-09-28T22:34:21.138Z,13.80
2022-09-28T22:35:53.513Z,13.45
2022-09-28T22:37:27.460Z,13.38
2022-09-28T22:38:59.601Z,12.20
2022-09-28T22:40:31.394Z,14.93
2022-09-28T22:42:03.183Z,17.95
2022-09-28T22:43:35.281Z,15.63
2022-09-28T22:45:07.216Z,13.27
2022-09-28T22:46:39.809Z,12.83
2022-09-28T22:48:11.760Z,19.00
2022-09-28T22:49:43.560Z,15.18
2022-09-28T22:51:15.854Z,17.77
2022-09-28T22:52:48.620Z,14.75
2022-09-28T22:54:21.710Z,18.42
2022-09-28T22:55:53.522Z,13.18
2022-09-28T22:57:25.313Z,16.42
2022-09-28T22:58:57.486Z,14.80
2022-09-28T23:00:29.371Z,17.20
2022-09-28T23:02:01.253Z,17.45
2022-09-28T23:03:33.229Z,14.95
2022-09-28T23:05:05.205Z,16.50
2022-09-28T23:06:36.957Z,14.55
2022-09-28T23:08:08.685Z,16.33
2022-09-28T23:09:40.621Z,17.40
2022-09-28T23:11:12.377Z,13.87
2022-09-28T23:12:44.103Z,18.00
2022-09-28T23:14:15.905Z,16.65
2022-09-28T23:16:04.348Z,17.88
2022-09-28T23:17:36.167Z,15.05
2022-09-28T23:19:07.863Z,15.32
2022-09-28T23:20:39.867Z,14.80
2022-09-28T23:22:11.578Z,13.63
2022-09-28T23:23:44.145Z,19.67
2022-09-28T23:25:16.720Z,16.52
2022-09-28T23:26:48.473Z,19.55
2022-09-28T23:28:20.716Z,15.63
2022-09-28T23:29:54.408Z,18.10
2022-09-28T23:31:28.150Z,16.88
2022-09-28T23:33:00.007Z,16.27
2022-09-28T23:34:31.701Z,13.77
2022-09-28T23:36:03.501Z,15.98
2022-09-28T23:37:35.396Z,14.82
2022-09-28T23:39:07.156Z,20.40
2022-09-28T23:40:39.181Z,14.35
2022-09-28T23:42:10.962Z,17.10
2022-09-28T23:43:42.724Z,16.10
2022-09-28T23:45:14.512Z,14.88
2022-09-28T23:46:46.257Z,15.25
2022-09-28T23:48:18.418Z,15.43
2022-09-28T23:49:50.154Z,14.30
2022-09-28T23:51:21.910Z,17.90
2022-09-28T23:52:53.639Z,13.05
2022-09-28T23:54:25.322Z,13.35
2022-09-28T23:55:57.065Z,11.35
2022-09-28T23:57:28.830Z,14.65
2022-09-28T23:59:00.554Z,12.68
